createdAt,value
2018-12-09T00:00:39.991Z,7.90
2018-12-09T00:02:43.240Z,13.30
2018-12-09T00:04:46.481Z,6.10
2018-12-09T00:06:50.525Z,9.57
2018-12-09T00:08:54.126Z,8.03
2018-12-09T00:10:57.388Z,8.20
2018-12-09T00:13:00.618Z,5.80
2018-12-09T00:15:04.806Z,4.77
2018-12-09T00:17:08.067Z,7.50
2018-12-09T00:19:12.207Z,14.97
2018-12-09T00:21:15.462Z,10.33
2018-12-09T00:23:19.068Z,3.80
2018-12-09T00:25:22.793Z,7.00
2018-12-09T00:27:26.014Z,7.67
2018-12-09T00:29:29.202Z,9.83
2018-12-09T00:31:33.384Z,3.30
2018-12-09T00:33:36.651Z,4.50
2018-12-09T00:35:39.931Z,2.73
2018-12-09T00:37:43.135Z,8.80
2018-12-09T00:39:46.306Z,6.30
2018-12-09T00:41:49.556Z,3.90
2018-12-09T00:43:52.981Z,7.60
2018-12-09T00:45:56.603Z,10.77
2018-12-09T00:47:59.838Z,5.37
2018-12-09T00:50:04.556Z,4.33
2018-12-09T00:52:08.162Z,7.70
2018-12-09T00:54:11.452Z,4.90
2018-12-09T00:56:15.126Z,11.10
2018-12-09T00:58:18.377Z,3.70
2018-12-09T01:00:21.591Z,3.43
2018-12-09T01:02:25.606Z,2.63
2018-12-09T01:04:28.818Z,4.37
2018-12-09T01:06:32.083Z,2.83
2018-12-09T01:08:35.842Z,4.77
2018-12-09T01:10:39.245Z,3.07
2018-12-09T01:12:43.381Z,4.53
2018-12-09T01:14:47.272Z,4.97
2018-12-09T01:16:50.480Z,3.10
2018-12-09T01:18:54.096Z,2.53
2018-12-09T01:20:57.871Z,4.30
2018-12-09T01:23:01.146Z,2.90
2018-12-09T01:25:05.181Z,2.97
2018-12-09T01:27:09.454Z,1.80
2018-12-09T01:29:12.915Z,3.20
2018-12-09T01:31:16.354Z,1.40
2018-12-09T01:33:19.669Z,2.10
2018-12-09T01:35:23.129Z,1.50
2018-12-09T01:37:26.594Z,1.30
2018-12-09T01:39:30.126Z,3.70
2018-12-09T01:41:33.346Z,3.00
2018-12-09T01:43:36.962Z,1.40
2018-12-09T01:45:41.463Z,1.33
2018-12-09T01:47:45.066Z,0.90
2018-12-09T01:49:48.762Z,1.23
2018-12-09T01:51:52.347Z,4.33
2018-12-09T01:54:12.611Z,1.03
2018-12-09T01:56:16.174Z,1.30
2018-12-09T01:58:21.148Z,0.80
2018-12-09T02:00:24.908Z,0.70
2018-12-09T02:02:28.889Z,0.60
2018-12-09T02:04:33.182Z,1.03
2018-12-09T02:06:36.957Z,1.43
2018-12-09T02:08:40.323Z,1.10
2018-12-09T02:10:44.501Z,1.37
2018-12-09T02:12:48.517Z,1.60
2018-12-09T02:14:52.926Z,1.30
2018-12-09T02:16:56.781Z,1.10
2018-12-09T02:19:14.389Z,1.33
2018-12-09T02:21:18.028Z,1.27
2018-12-09T02:23:21.486Z,2.00
2018-12-09T02:25:24.746Z,1.20
2018-12-09T02:27:28.183Z,2.23
2018-12-09T02:29:31.756Z,0.90
2018-12-09T02:31:35.842Z,2.63
2018-12-09T02:33:39.671Z,2.67
2018-12-09T02:35:46.718Z,1.90
2018-12-09T02:37:50.887Z,1.13
2018-12-09T02:39:54.068Z,3.07
2018-12-09T02:41:57.261Z,1.47
2018-12-09T02:44:00.479Z,2.57
2018-12-09T02:46:04.149Z,3.03
2018-12-09T02:48:07.755Z,2.03
2018-12-09T02:50:11.279Z,1.43
2018-12-09T02:52:15.156Z,2.10
2018-12-09T02:54:18.663Z,2.80
2018-12-09T02:56:22.779Z,0.87
2018-12-09T02:58:26.956Z,1.70
2018-12-09T03:00:30.436Z,4.17
2018-12-09T03:02:33.779Z,1.10
2018-12-09T03:04:36.974Z,1.47
2018-12-09T03:06:40.428Z,1.90
2018-12-09T03:08:44.162Z,1.13
2018-12-09T03:10:47.606Z,0.80
2018-12-09T03:12:51.175Z,0.57
2018-12-09T03:14:54.986Z,1.07
2018-12-09T03:16:58.190Z,0.60
2018-12-09T03:19:01.676Z,4.50
2018-12-09T03:21:05.641Z,6.50
2018-12-09T03:23:10.103Z,1.07
2018-12-09T03:25:14.015Z,1.90
2018-12-09T03:27:18.178Z,1.80
2018-12-09T03:29:21.628Z,1.20
2018-12-09T03:31:25.314Z,1.15
2018-12-09T03:33:28.808Z,2.30
2018-12-09T03:35:32.877Z,1.85
2018-12-09T03:37:36.595Z,1.00
2018-12-09T03:39:40.057Z,1.85
2018-12-09T03:41:44.082Z,1.10
2018-12-09T03:43:47.798Z,1.70
2018-12-09T03:45:52.320Z,1.22
2018-12-09T03:47:56.554Z,0.75
2018-12-09T03:49:59.747Z,2.50
2018-12-09T03:52:04.104Z,4.30
2018-12-09T03:54:07.817Z,3.83
2018-12-09T03:56:11.627Z,1.70
2018-12-09T03:58:15.074Z,1.80
2018-12-09T04:00:18.376Z,0.70
2018-12-09T04:02:22.147Z,1.20
2018-12-09T04:04:26.131Z,2.17
2018-12-09T04:06:29.711Z,1.55
2018-12-09T04:08:33.902Z,2.00
2018-12-09T04:10:37.836Z,1.37
2018-12-09T04:12:41.743Z,2.50
2018-12-09T04:14:46.152Z,3.22
2018-12-09T04:16:50.381Z,1.90
2018-12-09T04:18:54.398Z,1.00
2018-12-09T04:20:57.946Z,1.40
2018-12-09T04:23:01.662Z,1.30
2018-12-09T04:25:05.255Z,1.90
2018-12-09T04:27:09.409Z,1.70
2018-12-09T04:29:12.895Z,1.27
2018-12-09T04:31:17.053Z,3.40
2018-12-09T04:33:20.782Z,2.50
2018-12-09T04:35:24.488Z,2.20
2018-12-09T04:37:28.467Z,1.00
2018-12-09T04:39:32.107Z,0.90
2018-12-09T04:41:35.638Z,1.20
2018-12-09T04:43:38.843Z,2.00
2018-12-09T04:45:42.749Z,2.00
2018-12-09T04:47:46.645Z,1.73
2018-12-09T04:49:50.131Z,2.20
2018-12-09T04:51:57.905Z,2.08
2018-12-09T04:54:01.454Z,1.27
2018-12-09T04:56:05.183Z,3.00
2018-12-09T04:58:08.886Z,1.70
2018-12-09T05:00:24.151Z,2.92
2018-12-09T05:02:28.027Z,1.80
2018-12-09T05:04:31.749Z,0.93
2018-12-09T05:06:35.214Z,1.30
2018-12-09T05:08:38.490Z,1.40
2018-12-09T05:10:42.428Z,2.30
2018-12-09T05:12:46.116Z,1.22
2018-12-09T05:14:49.920Z,2.00
2018-12-09T05:16:53.694Z,2.00
2018-12-09T05:18:56.908Z,1.50
2018-12-09T05:21:00.159Z,1.70
2018-12-09T05:23:03.807Z,1.70
2018-12-09T05:25:07.942Z,2.43
2018-12-09T05:27:11.819Z,1.40
2018-12-09T05:29:15.323Z,3.20
2018-12-09T05:31:19.206Z,1.60
2018-12-09T05:33:22.671Z,1.40
2018-12-09T05:35:26.132Z,0.80
2018-12-09T05:37:29.554Z,0.60
2018-12-09T05:39:32.866Z,2.80
2018-12-09T05:41:36.698Z,0.70
2018-12-09T05:43:40.337Z,2.13
2018-12-09T05:45:44.700Z,1.00
2018-12-09T05:47:47.890Z,1.40
2018-12-09T05:49:51.358Z,2.00
2018-12-09T05:51:54.570Z,1.00
2018-12-09T05:53:58.342Z,0.70
2018-12-09T05:56:02.131Z,1.10
2018-12-09T05:58:05.771Z,2.10
2018-12-09T06:00:10.544Z,1.63
2018-12-09T06:02:55.873Z,1.33
2018-12-09T06:04:59.342Z,4.20
2018-12-09T06:07:02.555Z,1.60
2018-12-09T06:09:06.976Z,3.63
2018-12-09T06:11:10.446Z,2.57
2018-12-09T06:13:14.278Z,2.53
2018-12-09T06:15:18.497Z,3.37
2018-12-09T06:17:21.692Z,2.23
2018-12-09T06:19:24.924Z,1.83
2018-12-09T06:21:28.381Z,2.63
2018-12-09T06:23:31.934Z,1.57
2018-12-09T06:25:36.060Z,5.30
2018-12-09T06:27:39.622Z,5.03
2018-12-09T06:29:42.908Z,2.60
2018-12-09T06:31:46.127Z,7.50
2018-12-09T06:33:49.384Z,0.93
2018-12-09T06:35:52.578Z,5.97
2018-12-09T06:37:56.005Z,2.40
2018-12-09T06:39:59.604Z,2.63
2018-12-09T06:42:03.084Z,1.77
2018-12-09T06:44:06.768Z,2.08
2018-12-09T06:46:09.998Z,1.33
2018-12-09T06:48:13.180Z,3.13
2018-12-09T06:50:16.383Z,4.20
2018-12-09T06:52:19.613Z,3.80
2018-12-09T06:54:23.161Z,3.30
2018-12-09T06:56:26.634Z,3.25
2018-12-09T06:58:30.230Z,2.77
2018-12-09T07:00:34.167Z,2.55
2018-12-09T07:02:38.367Z,2.55
2018-12-09T07:04:42.742Z,4.83
2018-12-09T07:06:45.956Z,2.87
2018-12-09T07:08:49.422Z,3.13
2018-12-09T07:10:52.903Z,2.87
2018-12-09T07:12:56.376Z,4.80
2018-12-09T07:14:59.954Z,5.40
2018-12-09T07:17:06.112Z,3.20
2018-12-09T07:19:10.087Z,1.77
2018-12-09T07:21:13.514Z,3.13
2018-12-09T07:23:17.006Z,6.27
2018-12-09T07:25:20.850Z,3.33
2018-12-09T07:27:24.142Z,2.00
2018-12-09T07:29:27.640Z,2.97
2018-12-09T07:31:30.850Z,3.87
2018-12-09T07:33:34.085Z,5.17
2018-12-09T07:35:38.534Z,7.20
2018-12-09T07:37:41.737Z,1.47
2018-12-09T07:39:45.448Z,5.40
2018-12-09T07:41:49.098Z,3.43
2018-12-09T07:43:52.312Z,1.80
2018-12-09T07:45:55.530Z,3.00
2018-12-09T07:47:58.770Z,4.80
2018-12-09T07:50:02.698Z,3.95
2018-12-09T07:52:06.410Z,6.35
2018-12-09T07:54:09.638Z,3.40
2018-12-09T07:56:12.862Z,3.43
2018-12-09T07:58:16.119Z,8.67
2018-12-09T08:00:19.354Z,3.40
2018-12-09T08:02:22.527Z,5.07
2018-12-09T08:04:26.067Z,4.50
2018-12-09T08:06:29.605Z,4.50
2018-12-09T08:08:32.810Z,2.80
2018-12-09T08:10:36.483Z,5.93
2018-12-09T08:12:39.767Z,3.93
2018-12-09T08:14:42.969Z,4.73
2018-12-09T08:16:46.167Z,4.17
2018-12-09T08:18:49.674Z,5.45
2018-12-09T08:20:53.197Z,10.50
2018-12-09T08:22:56.427Z,7.33
2018-12-09T08:24:59.854Z,4.93
2018-12-09T08:27:03.886Z,3.80
2018-12-09T08:29:07.498Z,5.25
2018-12-09T08:31:11.578Z,5.90
2018-12-09T08:33:15.065Z,9.28
2018-12-09T08:35:18.956Z,7.28
2018-12-09T08:37:22.282Z,4.60
2018-12-09T08:39:25.563Z,6.87
2018-12-09T08:41:29.332Z,5.45
2018-12-09T08:43:32.623Z,10.68
2018-12-09T08:45:35.885Z,10.13
2018-12-09T08:47:39.397Z,5.90
2018-12-09T08:49:42.666Z,2.93
2018-12-09T08:51:47.058Z,8.30
2018-12-09T08:53:50.554Z,5.12
2018-12-09T08:55:53.802Z,5.75
2018-12-09T08:57:57.082Z,6.87
2018-12-09T09:00:00.579Z,12.75
2018-12-09T09:02:04.137Z,5.80
2018-12-09T09:04:07.379Z,7.80
2018-12-09T09:06:10.892Z,11.83
2018-12-09T09:08:14.808Z,8.65
2018-12-09T09:10:18.362Z,5.10
2018-12-09T09:12:21.860Z,4.75
2018-12-09T09:14:25.368Z,5.78
2018-12-09T09:16:29.151Z,5.00
2018-12-09T09:18:32.974Z,4.70
2018-12-09T09:20:36.972Z,2.58
2018-12-09T09:22:40.370Z,3.72
2018-12-09T09:24:43.989Z,4.10
2018-12-09T09:26:47.522Z,3.67
2018-12-09T09:28:51.198Z,3.77
2018-12-09T09:30:55.294Z,2.02
2018-12-09T09:32:58.819Z,3.00
2018-12-09T09:35:02.326Z,2.90
2018-12-09T09:37:05.822Z,2.33
2018-12-09T09:39:09.148Z,2.47
2018-12-09T09:41:13.057Z,3.75
2018-12-09T09:43:16.318Z,3.20
2018-12-09T09:45:20.186Z,3.80
2018-12-09T09:47:23.466Z,3.05
2018-12-09T09:49:27.186Z,4.12
2018-12-09T09:51:30.670Z,4.15
2018-12-09T09:53:34.178Z,5.87
2018-12-09T09:55:38.371Z,9.85
2018-12-09T09:57:41.994Z,9.55
2018-12-09T09:59:45.497Z,5.30
2018-12-09T10:01:49.034Z,14.15
2018-12-09T10:03:52.884Z,8.90
2018-12-09T10:05:56.375Z,6.53
2018-12-09T10:07:59.717Z,7.10
2018-12-09T10:10:03.918Z,5.28
2018-12-09T10:12:07.494Z,7.47
2018-12-09T10:14:10.784Z,3.77
2018-12-09T10:16:13.986Z,6.27
2018-12-09T10:18:17.511Z,7.12
2018-12-09T10:20:21.326Z,5.00
2018-12-09T10:22:24.934Z,2.22
2018-12-09T10:24:28.430Z,1.40
2018-12-09T10:26:36.478Z,1.50
2018-12-09T10:28:37.402Z,4.60
2018-12-09T10:30:40.590Z,1.87
2018-12-09T10:32:43.843Z,3.33
2018-12-09T10:34:47.586Z,2.72
2018-12-09T10:36:51.043Z,1.40
2018-12-09T10:38:54.570Z,1.90
2018-12-09T10:40:58.050Z,1.40
2018-12-09T10:43:01.304Z,3.37
2018-12-09T10:45:06.399Z,2.35
2018-12-09T10:47:09.901Z,2.30
2018-12-09T10:49:14.168Z,4.60
2018-12-09T10:51:17.385Z,2.70
2018-12-09T10:53:20.596Z,8.08
2018-12-09T10:55:23.858Z,7.90
2018-12-09T10:57:27.462Z,7.28
2018-12-09T10:59:30.959Z,3.22
2018-12-09T11:01:42.556Z,1.60
2018-12-09T11:03:46.102Z,4.23
2018-12-09T11:05:49.332Z,1.10
2018-12-09T11:07:53.223Z,3.77
2018-12-09T11:09:56.510Z,5.90
2018-12-09T11:12:00.010Z,4.35
2018-12-09T11:14:03.954Z,4.72
2018-12-09T11:16:08.154Z,5.65
2018-12-09T11:18:11.635Z,4.75
2018-12-09T11:20:14.879Z,7.00
2018-12-09T11:22:18.204Z,6.87
2018-12-09T11:24:22.106Z,9.85
2018-12-09T11:28:35.782Z,9.85
2018-12-09T11:30:39.266Z,3.20
2018-12-09T11:32:42.549Z,6.60
2018-12-09T11:34:46.258Z,2.10
2018-12-09T11:36:49.447Z,3.20
2018-12-09T11:38:52.685Z,4.45
2018-12-09T11:40:56.860Z,3.43
2018-12-09T11:43:00.456Z,3.62
2018-12-09T11:45:05.245Z,5.00
2018-12-09T11:47:08.715Z,1.90
2018-12-09T11:49:12.251Z,2.60
2018-12-09T11:51:16.286Z,5.20
2018-12-09T11:53:20.275Z,4.15
2018-12-09T11:55:23.686Z,1.80
2018-12-09T11:57:27.548Z,3.42
2018-12-09T11:59:31.298Z,1.83
2018-12-09T12:01:35.085Z,2.02
2018-12-09T12:03:38.553Z,3.90
2018-12-09T12:05:42.020Z,2.50
2018-12-09T12:07:45.684Z,2.40
2018-12-09T12:09:49.320Z,1.93
2018-12-09T12:11:52.938Z,3.47
2018-12-09T12:13:56.935Z,5.90
2018-12-09T12:16:00.271Z,2.15
2018-12-09T12:18:03.984Z,1.83
2018-12-09T12:20:08.075Z,6.12
2018-12-09T12:22:11.583Z,5.40
2018-12-09T12:24:14.851Z,4.90
2018-12-09T12:26:18.878Z,2.67
2018-12-09T12:28:22.184Z,4.47
2018-12-09T12:30:26.466Z,3.50
2018-12-09T12:32:30.076Z,6.03
2018-12-09T12:34:33.290Z,2.83
2018-12-09T12:36:36.573Z,7.40
2018-12-09T12:38:40.286Z,3.20
2018-12-09T12:40:43.812Z,3.17
2018-12-09T12:42:48.436Z,6.87
2018-12-09T12:44:53.004Z,4.70
2018-12-09T12:46:57.701Z,7.28
2018-12-09T12:49:01.930Z,3.20
2018-12-09T12:51:06.138Z,3.60
2018-12-09T12:53:10.469Z,7.90
2018-12-09T12:55:14.218Z,2.47
2018-12-09T12:57:17.442Z,2.77
2018-12-09T12:59:20.633Z,2.93
2018-12-09T13:01:23.931Z,1.37
2018-12-09T13:03:27.476Z,4.83
2018-12-09T13:05:31.522Z,5.50
2018-12-09T13:07:35.356Z,5.03
2018-12-09T13:09:38.959Z,6.28
2018-12-09T13:11:42.597Z,6.78
2018-12-09T13:13:46.723Z,3.70
2018-12-09T13:15:50.571Z,5.45
2018-12-09T13:17:54.217Z,8.10
2018-12-09T13:19:57.828Z,7.67
2018-12-09T13:22:01.543Z,3.50
2018-12-09T13:24:05.514Z,6.08
2018-12-09T13:26:08.982Z,4.60
2018-12-09T13:28:12.258Z,4.62
2018-12-09T13:30:16.073Z,4.72
2018-12-09T13:32:19.982Z,5.42
2018-12-09T13:34:23.666Z,4.62
2018-12-09T13:36:27.232Z,4.83
2018-12-09T13:38:30.937Z,9.20
2018-12-09T13:40:34.596Z,6.70
2018-12-09T13:42:38.085Z,5.90
2018-12-09T13:44:42.001Z,5.22
2018-12-09T13:46:45.466Z,8.00
2018-12-09T13:48:49.370Z,9.60
2018-12-09T13:50:52.888Z,7.63
2018-12-09T13:52:56.382Z,9.33
2018-12-09T13:54:59.615Z,10.32
2018-12-09T13:57:03.787Z,8.65
2018-12-09T13:59:07.480Z,12.50
2018-12-09T14:01:11.003Z,6.12
2018-12-09T14:03:14.419Z,6.57
2018-12-09T14:05:18.008Z,6.37
2018-12-09T14:07:21.202Z,7.15
2018-12-09T14:09:24.494Z,3.12
2018-12-09T14:11:29.158Z,12.70
2018-12-09T14:13:32.858Z,4.90
2018-12-09T14:15:36.362Z,6.62
2018-12-09T14:17:40.145Z,9.88
2018-12-09T14:19:44.458Z,6.85
2018-12-09T14:21:47.931Z,7.42
2018-12-09T14:23:51.166Z,3.92
2018-12-09T14:25:55.018Z,7.40
2018-12-09T14:27:58.673Z,9.03
2018-12-09T14:30:02.178Z,5.42
2018-12-09T14:32:06.770Z,6.62
2018-12-09T14:34:11.386Z,7.85
2018-12-09T14:36:14.868Z,4.25
2018-12-09T14:38:19.034Z,6.70
2018-12-09T14:40:22.282Z,5.10
2018-12-09T14:42:25.787Z,5.60
2018-12-09T14:44:29.440Z,3.92
2018-12-09T14:46:33.285Z,4.80
2018-12-09T14:48:36.838Z,9.53
2018-12-09T14:50:40.354Z,6.70
2018-12-09T14:52:44.242Z,5.20
2018-12-09T14:54:47.933Z,4.17
2018-12-09T14:56:51.144Z,7.60
2018-12-09T14:58:54.414Z,13.53
2018-12-09T15:00:58.344Z,15.40
2018-12-09T15:03:02.141Z,7.70
2018-12-09T15:05:06.411Z,7.55
2018-12-09T15:07:09.732Z,9.25
2018-12-09T15:09:14.270Z,9.60
2018-12-09T15:11:18.190Z,13.22
2018-12-09T15:13:21.770Z,9.23
2018-12-09T15:15:25.342Z,9.40
2018-12-09T15:17:28.860Z,14.43
2018-12-09T15:19:32.422Z,10.90
2018-12-09T15:21:36.066Z,7.10
2018-12-09T15:23:39.570Z,6.55
2018-12-09T15:25:43.389Z,11.70
2018-12-09T15:27:46.846Z,11.70
2018-12-09T15:29:50.387Z,8.83
2018-12-09T15:31:53.908Z,9.68
2018-12-09T15:33:58.161Z,12.63
2018-12-09T15:36:01.426Z,11.57
2018-12-09T15:38:06.037Z,12.33
2018-12-09T15:40:10.360Z,11.05
2018-12-09T15:42:14.884Z,11.50
2018-12-09T15:44:18.724Z,10.82
2018-12-09T15:46:21.994Z,7.10
2018-12-09T15:48:25.534Z,11.40
2018-12-09T15:50:29.179Z,5.80
2018-12-09T15:52:32.686Z,8.85
2018-12-09T15:54:36.854Z,9.05
2018-12-09T15:56:40.610Z,8.53
2018-12-09T15:58:44.133Z,5.92
2018-12-09T16:00:53.154Z,9.90
2018-12-09T16:02:56.722Z,9.57
2018-12-09T16:05:00.007Z,10.63
2018-12-09T16:07:04.337Z,8.08
2018-12-09T16:09:08.822Z,10.93
2018-12-09T16:11:12.101Z,13.25
2018-12-09T16:13:15.302Z,4.58
2018-12-09T16:15:18.593Z,8.70
2018-12-09T16:17:22.514Z,6.25
2018-12-09T16:19:26.135Z,10.83
2018-12-09T16:21:29.716Z,12.23
2018-12-09T16:23:33.519Z,9.45
2018-12-09T16:25:37.111Z,10.80
2018-12-09T16:27:40.911Z,14.10
2018-12-09T16:29:44.165Z,9.23
2018-12-09T16:31:47.398Z,15.18
2018-12-09T16:33:50.666Z,10.53
2018-12-09T16:35:54.284Z,7.70
2018-12-09T16:37:57.901Z,9.50
2018-12-09T16:40:01.463Z,12.88
2018-12-09T16:42:05.394Z,12.55
2018-12-09T16:44:08.958Z,14.33
2018-12-09T16:46:12.311Z,8.63
2018-12-09T16:48:15.918Z,8.55
2018-12-09T16:50:19.824Z,8.73
2018-12-09T16:52:23.335Z,10.68
2018-12-09T16:54:26.615Z,9.48
2018-12-09T16:56:30.313Z,8.57
2018-12-09T16:58:33.944Z,13.13
2018-12-09T17:00:37.871Z,9.73
2018-12-09T17:02:41.100Z,10.23
2018-12-09T17:04:44.390Z,4.30
2018-12-09T17:06:48.142Z,8.00
2018-12-09T17:08:51.350Z,12.55
2018-12-09T17:10:54.863Z,9.75
2018-12-09T17:12:58.359Z,19.20
2018-12-09T17:15:01.850Z,9.35
2018-12-09T17:17:05.474Z,15.10
2018-12-09T17:19:08.995Z,12.53
2018-12-09T17:21:12.258Z,9.38
2018-12-09T17:23:15.503Z,14.50
2018-12-09T17:25:19.082Z,9.98
2018-12-09T17:27:22.786Z,8.58
2018-12-09T17:29:26.321Z,7.10
2018-12-09T17:31:29.817Z,8.98
2018-12-09T17:33:33.082Z,11.40
2018-12-09T17:35:36.626Z,5.87
2018-12-09T17:37:40.164Z,11.03
2018-12-09T17:39:43.794Z,17.20
2018-12-09T17:41:47.266Z,10.18
2018-12-09T17:43:50.729Z,11.80
2018-12-09T17:45:54.554Z,13.93
2018-12-09T17:47:58.491Z,10.90
2018-12-09T17:50:02.434Z,10.30
2018-12-09T17:52:06.041Z,13.80
2018-12-09T17:54:09.981Z,16.02
2018-12-09T17:56:13.192Z,15.10
2018-12-09T17:58:16.408Z,11.80
2018-12-09T18:00:20.240Z,15.70
2018-12-09T18:02:23.470Z,10.40
2018-12-09T18:04:26.703Z,8.73
2018-12-09T18:06:30.431Z,15.98
2018-12-09T18:08:33.940Z,9.10
2018-12-09T18:10:37.452Z,19.25
2018-12-09T18:12:48.048Z,12.13
2018-12-09T18:14:46.778Z,14.03
2018-12-09T18:16:50.266Z,14.20
2018-12-09T18:18:54.081Z,18.33
2018-12-09T18:20:57.587Z,11.78
2018-12-09T18:23:00.858Z,13.13
2018-12-09T18:25:05.397Z,11.38
2018-12-09T18:27:08.889Z,15.08
2018-12-09T18:29:12.557Z,17.83
2018-12-09T18:31:16.500Z,11.38
2018-12-09T18:33:20.094Z,16.12
2018-12-09T18:35:23.905Z,13.30
2018-12-09T18:37:27.904Z,15.60
2018-12-09T18:39:31.850Z,7.33
2018-12-09T18:41:35.663Z,9.05
2018-12-09T18:43:39.876Z,12.40
2018-12-09T18:45:43.502Z,17.17
2018-12-09T18:47:47.402Z,7.83
2018-12-09T18:49:51.002Z,14.78
2018-12-09T18:51:54.211Z,15.40
2018-12-09T18:53:57.550Z,12.95
2018-12-09T18:56:01.485Z,10.75
2018-12-09T18:58:05.256Z,6.75
2018-12-09T19:00:09.570Z,14.85
2018-12-09T19:02:12.735Z,8.58
2018-12-09T19:04:16.358Z,8.15
2018-12-09T19:06:20.578Z,13.05
2018-12-09T19:08:25.198Z,11.73
2018-12-09T19:10:28.826Z,8.53
2018-12-09T19:12:33.124Z,12.20
2018-12-09T19:14:36.650Z,9.68
2018-12-09T19:16:39.897Z,12.33
2018-12-09T19:18:43.496Z,15.72
2018-12-09T19:20:46.979Z,12.13
2018-12-09T19:22:50.409Z,9.30
2018-12-09T19:24:54.153Z,11.88
2018-12-09T19:26:58.006Z,14.43
2018-12-09T19:29:01.522Z,10.65
2018-12-09T19:31:16.598Z,13.27
2018-12-09T19:33:20.523Z,10.57
2018-12-09T19:35:23.995Z,8.03
2018-12-09T19:37:27.510Z,10.80
2018-12-09T19:39:30.999Z,15.80
2018-12-09T19:41:35.588Z,8.90
2018-12-09T19:43:39.612Z,11.50
2018-12-09T19:45:43.151Z,11.78
2018-12-09T19:47:46.646Z,7.92
2018-12-09T19:49:50.167Z,8.78
2018-12-09T19:51:53.815Z,5.70
2018-12-09T19:53:58.155Z,8.38
2018-12-09T19:56:04.345Z,9.05
2018-12-09T19:58:08.510Z,11.12
2018-12-09T20:00:12.755Z,21.60
2018-12-09T20:02:16.328Z,10.82
2018-12-09T20:04:20.026Z,17.37
2018-12-09T20:06:24.126Z,12.73
2018-12-09T20:08:27.631Z,18.20
2018-12-09T20:10:31.711Z,5.00
2018-12-09T20:12:35.038Z,11.17
2018-12-09T20:14:38.588Z,11.25
2018-12-09T20:16:42.428Z,14.23
2018-12-09T20:18:46.356Z,12.47
2018-12-09T20:20:50.890Z,12.45
2018-12-09T20:22:54.849Z,10.48
2018-12-09T20:24:58.513Z,5.58
2018-12-09T20:27:02.149Z,5.07
2018-12-09T20:29:05.717Z,10.40
2018-12-09T20:31:09.148Z,11.73
2018-12-09T20:33:12.666Z,9.48
2018-12-09T20:35:16.596Z,12.23
2018-12-09T20:37:20.108Z,15.75
2018-12-09T20:39:23.846Z,9.50
2018-12-09T20:41:27.386Z,15.65
2018-12-09T20:43:31.069Z,12.78
2018-12-09T20:45:34.742Z,10.28
2018-12-09T20:47:39.932Z,12.85
2018-12-09T20:49:43.439Z,9.55
2018-12-09T20:51:47.934Z,14.45
2018-12-09T20:53:51.579Z,12.88
2018-12-09T20:55:55.206Z,16.27
2018-12-09T20:57:58.737Z,14.47
2018-12-09T21:00:02.405Z,14.75
2018-12-09T21:02:05.593Z,12.37
2018-12-09T21:04:09.261Z,12.43
2018-12-09T21:06:12.848Z,13.08
2018-12-09T21:08:16.427Z,14.55
2018-12-09T21:10:19.960Z,17.20
2018-12-09T21:12:23.350Z,24.33
2018-12-09T21:14:26.911Z,14.70
2018-12-09T21:16:30.944Z,15.13
2018-12-09T21:18:34.462Z,15.72
2018-12-09T21:20:38.165Z,12.63
2018-12-09T21:22:41.705Z,20.12
2018-12-09T21:24:45.270Z,20.70
2018-12-09T21:26:48.792Z,12.55
2018-12-09T21:28:52.154Z,14.93
2018-12-09T21:30:56.407Z,9.90
2018-12-09T21:32:59.902Z,19.73
2018-12-09T21:35:04.062Z,8.68
2018-12-09T21:37:07.330Z,13.30
2018-12-09T21:39:11.150Z,10.90
2018-12-09T21:41:15.101Z,14.65
2018-12-09T21:43:19.019Z,11.88
2018-12-09T21:45:23.025Z,10.63
2018-12-09T21:47:26.578Z,9.85
2018-12-09T21:49:30.091Z,10.85
2018-12-09T21:51:33.765Z,23.13
2018-12-09T21:53:37.334Z,12.88
2018-12-09T21:55:40.551Z,9.47
2018-12-09T21:57:44.255Z,12.98
2018-12-09T21:59:48.223Z,16.17
2018-12-09T22:01:51.756Z,13.55
2018-12-09T22:03:55.040Z,14.95
2018-12-09T22:05:59.160Z,15.65
2018-12-09T22:08:02.343Z,20.53
2018-12-09T22:10:07.137Z,13.00
2018-12-09T22:12:10.689Z,26.93
2018-12-09T22:14:14.198Z,17.52
2018-12-09T22:16:18.296Z,23.55
2018-12-09T22:18:22.127Z,14.47
2018-12-09T22:20:25.610Z,16.25
2018-12-09T22:22:29.599Z,21.82
2018-12-09T22:24:33.109Z,17.90
2018-12-09T22:26:36.653Z,11.65
2018-12-09T22:28:40.268Z,12.73
2018-12-09T22:30:44.223Z,18.00
2018-12-09T22:32:48.030Z,24.05
2018-12-09T22:34:51.512Z,11.80
2018-12-09T22:36:54.834Z,19.90
2018-12-09T22:38:58.376Z,12.25
2018-12-09T22:41:01.910Z,15.70
2018-12-09T22:43:05.122Z,18.23
2018-12-09T22:45:09.922Z,11.63
2018-12-09T22:47:13.742Z,11.63
2018-12-09T22:49:17.306Z,14.40
2018-12-09T22:51:20.894Z,12.83
2018-12-09T22:53:25.308Z,15.68
2018-12-09T22:55:29.251Z,11.63
2018-12-09T22:57:32.745Z,7.60
2018-12-09T22:59:36.303Z,12.90
2018-12-09T23:01:44.050Z,13.25
2018-12-09T23:03:48.637Z,15.70
2018-12-09T23:05:52.311Z,10.50
2018-12-09T23:07:56.297Z,11.57
2018-12-09T23:10:00.071Z,9.23
2018-12-09T23:12:03.750Z,12.93
2018-12-09T23:14:07.562Z,9.68
2018-12-09T23:16:11.086Z,10.70
2018-12-09T23:18:14.658Z,12.47
2018-12-09T23:20:18.064Z,10.83
2018-12-09T23:22:21.554Z,9.60
2018-12-09T23:24:25.197Z,7.05
2018-12-09T23:26:29.137Z,10.00
2018-12-09T23:28:32.878Z,10.20
2018-12-09T23:30:36.926Z,8.45
2018-12-09T23:32:40.516Z,8.75
2018-12-09T23:34:44.065Z,5.37
2018-12-09T23:36:47.554Z,8.38
2018-12-09T23:38:51.038Z,8.23
2018-12-09T23:40:54.674Z,13.38
2018-12-09T23:42:58.571Z,9.35
2018-12-09T23:45:02.332Z,6.75
2018-12-09T23:47:06.240Z,9.55
2018-12-09T23:49:09.776Z,11.05
2018-12-09T23:51:13.307Z,8.15
2018-12-09T23:53:16.842Z,10.00
2018-12-09T23:55:20.438Z,7.62
2018-12-09T23:57:24.005Z,8.93
2018-12-09T23:59:27.489Z,9.30
